sensor_id;sensor_type;location;lat;lon;timestamp;P1;durP1;ratioP1;P2;durP2;ratioP2
23400;SDS011;11873;49.300;8.920;2023-07-29T00:01:16;1.70;;;1.60;;
23400;SDS011;11873;49.300;8.920;2023-07-29T00:06:16;1.63;;;1.50;;
23400;SDS011;11873;49.300;8.920;2023-07-29T00:11:17;1.83;;;1.57;;
23400;SDS011;11873;49.300;8.920;2023-07-29T00:16:17;1.40;;;1.30;;
23400;SDS011;11873;49.300;8.920;2023-07-29T00:21:17;3.70;;;1.67;;
23400;SDS011;11873;49.300;8.920;2023-07-29T00:26:17;1.70;;;1.60;;
23400;SDS011;11873;49.300;8.920;2023-07-29T00:31:17;3.17;;;1.73;;
23400;SDS011;11873;49.300;8.920;2023-07-29T00:36:18;1.70;;;1.60;;
23400;SDS011;11873;49.300;8.920;2023-07-29T00:41:18;1.60;;;1.50;;
23400;SDS011;11873;49.300;8.920;2023-07-29T00:46:18;1.80;;;1.60;;
23400;SDS011;11873;49.300;8.920;2023-07-29T00:51:18;3.33;;;1.50;;
23400;SDS011;11873;49.300;8.920;2023-07-29T00:56:18;3.70;;;1.90;;
23400;SDS011;11873;49.300;8.920;2023-07-29T01:01:19;1.67;;;1.57;;
23400;SDS011;11873;49.300;8.920;2023-07-29T01:06:23;3.57;;;1.70;;
23400;SDS011;11873;49.300;8.920;2023-07-29T01:16:47;2.47;;;1.40;;
23400;SDS011;11873;49.300;8.920;2023-07-29T01:21:49;1.93;;;1.60;;
23400;SDS011;11873;49.300;8.920;2023-07-29T01:26:49;1.80;;;1.70;;
23400;SDS011;11873;49.300;8.920;2023-07-29T01:31:50;1.80;;;1.60;;
23400;SDS011;11873;49.300;8.920;2023-07-29T01:36:54;2.43;;;1.63;;
23400;SDS011;11873;49.300;8.920;2023-07-29T01:41:55;1.93;;;1.67;;
23400;SDS011;11873;49.300;8.920;2023-07-29T01:46:56;4.37;;;1.83;;
23400;SDS011;11873;49.300;8.920;2023-07-29T01:51:56;2.97;;;1.90;;
23400;SDS011;11873;49.300;8.920;2023-07-29T01:56:56;1.60;;;1.50;;
23400;SDS011;11873;49.300;8.920;2023-07-29T02:01:56;2.03;;;1.90;;
23400;SDS011;11873;49.300;8.920;2023-07-29T02:06:56;3.13;;;1.90;;
23400;SDS011;11873;49.300;8.920;2023-07-29T02:11:57;1.50;;;1.40;;
23400;SDS011;11873;49.300;8.920;2023-07-29T02:16:57;3.43;;;2.07;;
23400;SDS011;11873;49.300;8.920;2023-07-29T02:21:57;4.00;;;1.77;;
23400;SDS011;11873;49.300;8.920;2023-07-29T02:26:57;1.80;;;1.50;;
23400;SDS011;11873;49.300;8.920;2023-07-29T02:31:57;1.97;;;1.80;;
23400;SDS011;11873;49.300;8.920;2023-07-29T02:36:58;2.13;;;1.93;;
23400;SDS011;11873;49.300;8.920;2023-07-29T02:41:58;2.20;;;1.97;;
23400;SDS011;11873;49.300;8.920;2023-07-29T02:46:58;2.27;;;2.07;;
23400;SDS011;11873;49.300;8.920;2023-07-29T02:51:58;3.20;;;2.08;;
23400;SDS011;11873;49.300;8.920;2023-07-29T02:56:58;3.33;;;2.10;;
23400;SDS011;11873;49.300;8.920;2023-07-29T03:01:59;2.20;;;1.90;;
23400;SDS011;11873;49.300;8.920;2023-07-29T03:06:59;2.30;;;2.10;;
23400;SDS011;11873;49.300;8.920;2023-07-29T03:11:59;2.20;;;2.00;;
23400;SDS011;11873;49.300;8.920;2023-07-29T03:17:02;2.53;;;2.03;;
23400;SDS011;11873;49.300;8.920;2023-07-29T03:22:02;2.53;;;1.83;;
23400;SDS011;11873;49.300;8.920;2023-07-29T03:27:02;1.73;;;1.60;;
23400;SDS011;11873;49.300;8.920;2023-07-29T03:32:03;2.10;;;1.50;;
23400;SDS011;11873;49.300;8.920;2023-07-29T03:37:03;1.80;;;1.70;;
23400;SDS011;11873;49.300;8.920;2023-07-29T03:42:03;2.50;;;2.13;;
23400;SDS011;11873;49.300;8.920;2023-07-29T03:47:04;2.33;;;1.80;;
23400;SDS011;11873;49.300;8.920;2023-07-29T03:52:04;2.93;;;2.60;;
23400;SDS011;11873;49.300;8.920;2023-07-29T03:57:04;2.67;;;2.40;;
23400;SDS011;11873;49.300;8.920;2023-07-29T04:02:05;4.40;;;2.53;;
23400;SDS011;11873;49.300;8.920;2023-07-29T04:07:05;6.00;;;2.73;;
23400;SDS011;11873;49.300;8.920;2023-07-29T04:12:05;4.03;;;2.90;;
23400;SDS011;11873;49.300;8.920;2023-07-29T04:17:06;6.83;;;2.90;;
23400;SDS011;11873;49.300;8.920;2023-07-29T04:22:06;2.90;;;2.70;;
23400;SDS011;11873;49.300;8.920;2023-07-29T04:27:07;3.73;;;2.67;;
23400;SDS011;11873;49.300;8.920;2023-07-29T04:32:07;3.03;;;2.77;;
23400;SDS011;11873;49.300;8.920;2023-07-29T04:37:07;2.60;;;2.40;;
23400;SDS011;11873;49.300;8.920;2023-07-29T04:42:07;2.90;;;2.40;;
23400;SDS011;11873;49.300;8.920;2023-07-29T04:47:07;3.13;;;2.83;;
23400;SDS011;11873;49.300;8.920;2023-07-29T04:52:08;3.00;;;2.80;;
23400;SDS011;11873;49.300;8.920;2023-07-29T04:57:08;3.20;;;2.90;;
23400;SDS011;11873;49.300;8.920;2023-07-29T05:02:08;3.43;;;2.77;;
23400;SDS011;11873;49.300;8.920;2023-07-29T05:07:08;3.53;;;2.70;;
23400;SDS011;11873;49.300;8.920;2023-07-29T05:12:08;4.77;;;2.77;;
23400;SDS011;11873;49.300;8.920;2023-07-29T05:17:09;2.53;;;2.33;;
23400;SDS011;11873;49.300;8.920;2023-07-29T05:22:09;2.90;;;2.60;;
23400;SDS011;11873;49.300;8.920;2023-07-29T05:27:09;3.00;;;2.70;;
23400;SDS011;11873;49.300;8.920;2023-07-29T05:32:09;3.43;;;2.37;;
23400;SDS011;11873;49.300;8.920;2023-07-29T05:37:10;4.10;;;2.40;;
23400;SDS011;11873;49.300;8.920;2023-07-29T05:42:10;1.50;;;1.40;;
23400;SDS011;11873;49.300;8.920;2023-07-29T05:47:10;2.00;;;1.73;;
23400;SDS011;11873;49.300;8.920;2023-07-29T05:52:10;1.67;;;1.57;;
23400;SDS011;11873;49.300;8.920;2023-07-29T05:57:11;2.13;;;1.93;;
23400;SDS011;11873;49.300;8.920;2023-07-29T06:02:11;1.63;;;1.53;;
23400;SDS011;11873;49.300;8.920;2023-07-29T06:07:11;3.07;;;1.90;;
23400;SDS011;11873;49.300;8.920;2023-07-29T06:12:11;1.90;;;1.80;;
23400;SDS011;11873;49.300;8.920;2023-07-29T06:17:12;2.00;;;1.90;;
23400;SDS011;11873;49.300;8.920;2023-07-29T06:22:12;1.93;;;1.70;;
23400;SDS011;11873;49.300;8.920;2023-07-29T06:27:12;1.67;;;1.57;;
23400;SDS011;11873;49.300;8.920;2023-07-29T06:32:12;1.77;;;1.67;;
23400;SDS011;11873;49.300;8.920;2023-07-29T06:37:12;3.37;;;1.53;;
23400;SDS011;11873;49.300;8.920;2023-07-29T06:42:12;3.20;;;1.50;;
23400;SDS011;11873;49.300;8.920;2023-07-29T06:47:13;4.37;;;1.80;;
23400;SDS011;11873;49.300;8.920;2023-07-29T06:52:13;1.43;;;1.33;;
23400;SDS011;11873;49.300;8.920;2023-07-29T06:57:13;1.50;;;1.40;;
23400;SDS011;11873;49.300;8.920;2023-07-29T07:02:13;1.93;;;1.40;;
23400;SDS011;11873;49.300;8.920;2023-07-29T07:07:14;1.77;;;1.30;;
23400;SDS011;11873;49.300;8.920;2023-07-29T07:12:15;2.63;;;1.90;;
23400;SDS011;11873;49.300;8.920;2023-07-29T07:17:15;1.60;;;1.50;;
23400;SDS011;11873;49.300;8.920;2023-07-29T07:22:15;5.90;;;1.87;;
23400;SDS011;11873;49.300;8.920;2023-07-29T07:27:16;2.13;;;1.80;;
23400;SDS011;11873;49.300;8.920;2023-07-29T07:32:16;1.90;;;1.70;;
23400;SDS011;11873;49.300;8.920;2023-07-29T07:37:16;3.93;;;1.63;;
23400;SDS011;11873;49.300;8.920;2023-07-29T07:42:16;1.90;;;1.40;;
23400;SDS011;11873;49.300;8.920;2023-07-29T07:47:16;1.30;;;1.23;;
23400;SDS011;11873;49.300;8.920;2023-07-29T07:52:18;2.53;;;1.50;;
23400;SDS011;11873;49.300;8.920;2023-07-29T07:57:19;1.53;;;1.43;;
23400;SDS011;11873;49.300;8.920;2023-07-29T08:02:19;1.33;;;1.23;;
23400;SDS011;11873;49.300;8.920;2023-07-29T08:07:20;0.80;;;0.80;;
23400;SDS011;11873;49.300;8.920;2023-07-29T08:12:20;4.83;;;1.30;;
23400;SDS011;11873;49.300;8.920;2023-07-29T08:17:20;1.30;;;1.20;;
23400;SDS011;11873;49.300;8.920;2023-07-29T08:22:20;1.50;;;1.40;;
23400;SDS011;11873;49.300;8.920;2023-07-29T08:27:20;1.30;;;1.20;;
23400;SDS011;11873;49.300;8.920;2023-07-29T08:32:21;1.40;;;1.30;;
23400;SDS011;11873;49.300;8.920;2023-07-29T08:37:21;2.27;;;1.10;;
23400;SDS011;11873;49.300;8.920;2023-07-29T08:42:21;1.10;;;1.10;;
23400;SDS011;11873;49.300;8.920;2023-07-29T08:47:23;1.17;;;1.10;;
23400;SDS011;11873;49.300;8.920;2023-07-29T08:52:23;1.50;;;1.40;;
23400;SDS011;11873;49.300;8.920;2023-07-29T08:57:24;1.07;;;1.07;;
23400;SDS011;11873;49.300;8.920;2023-07-29T09:02:24;1.40;;;1.30;;
23400;SDS011;11873;49.300;8.920;2023-07-29T09:07:24;1.57;;;1.40;;
23400;SDS011;11873;49.300;8.920;2023-07-29T09:12:25;1.90;;;1.23;;
23400;SDS011;11873;49.300;8.920;2023-07-29T09:17:25;1.70;;;1.60;;
23400;SDS011;11873;49.300;8.920;2023-07-29T09:22:26;1.70;;;1.00;;
23400;SDS011;11873;49.300;8.920;2023-07-29T09:27:27;1.20;;;1.20;;
23400;SDS011;11873;49.300;8.920;2023-07-29T09:32:27;1.47;;;1.37;;
23400;SDS011;11873;49.300;8.920;2023-07-29T09:37:27;1.70;;;1.17;;
23400;SDS011;11873;49.300;8.920;2023-07-29T09:42:28;2.73;;;1.20;;
23400;SDS011;11873;49.300;8.920;2023-07-29T09:47:28;1.30;;;1.20;;
23400;SDS011;11873;49.300;8.920;2023-07-29T09:52:29;1.70;;;1.43;;
23400;SDS011;11873;49.300;8.920;2023-07-29T09:57:29;1.23;;;1.13;;
23400;SDS011;11873;49.300;8.920;2023-07-29T10:02:30;1.37;;;1.30;;
23400;SDS011;11873;49.300;8.920;2023-07-29T10:07:30;1.20;;;1.20;;
23400;SDS011;11873;49.300;8.920;2023-07-29T10:12:31;1.47;;;1.37;;
23400;SDS011;11873;49.300;8.920;2023-07-29T10:17:40;3.33;;;1.30;;
23400;SDS011;11873;49.300;8.920;2023-07-29T10:22:41;1.47;;;1.37;;
23400;SDS011;11873;49.300;8.920;2023-07-29T10:27:47;1.67;;;1.57;;
23400;SDS011;11873;49.300;8.920;2023-07-29T10:32:48;1.53;;;1.43;;
23400;SDS011;11873;49.300;8.920;2023-07-29T10:37:48;1.43;;;1.30;;
23400;SDS011;11873;49.300;8.920;2023-07-29T10:43:02;2.40;;;1.40;;
23400;SDS011;11873;49.300;8.920;2023-07-29T10:48:12;1.93;;;1.50;;
23400;SDS011;11873;49.300;8.920;2023-07-29T10:53:12;1.27;;;1.20;;
23400;SDS011;11873;49.300;8.920;2023-07-29T10:58:13;1.40;;;1.30;;
23400;SDS011;11873;49.300;8.920;2023-07-29T11:03:14;2.10;;;1.47;;
23400;SDS011;11873;49.300;8.920;2023-07-29T11:08:21;2.17;;;1.70;;
23400;SDS011;11873;49.300;8.920;2023-07-29T11:13:21;1.10;;;1.10;;
23400;SDS011;11873;49.300;8.920;2023-07-29T11:18:22;1.60;;;1.50;;
23400;SDS011;11873;49.300;8.920;2023-07-29T11:23:32;1.10;;;1.10;;
23400;SDS011;11873;49.300;8.920;2023-07-29T11:28:37;1.97;;;1.27;;
23400;SDS011;11873;49.300;8.920;2023-07-29T11:33:38;1.30;;;1.20;;
23400;SDS011;11873;49.300;8.920;2023-07-29T11:38:39;1.60;;;1.50;;
23400;SDS011;11873;49.300;8.920;2023-07-29T11:43:39;1.20;;;1.20;;
23400;SDS011;11873;49.300;8.920;2023-07-29T11:48:40;1.43;;;1.37;;
23400;SDS011;11873;49.300;8.920;2023-07-29T11:53:44;1.33;;;1.23;;
23400;SDS011;11873;49.300;8.920;2023-07-29T11:58:44;4.10;;;1.20;;
23400;SDS011;11873;49.300;8.920;2023-07-29T12:03:45;1.20;;;1.10;;
23400;SDS011;11873;49.300;8.920;2023-07-29T12:08:45;0.90;;;0.90;;
23400;SDS011;11873;49.300;8.920;2023-07-29T12:13:46;0.73;;;0.73;;
23400;SDS011;11873;49.300;8.920;2023-07-29T12:18:46;1.50;;;1.23;;
23400;SDS011;11873;49.300;8.920;2023-07-29T12:23:47;1.00;;;1.00;;
23400;SDS011;11873;49.300;8.920;2023-07-29T12:28:47;1.47;;;1.37;;
23400;SDS011;11873;49.300;8.920;2023-07-29T12:33:47;1.07;;;1.07;;
23400;SDS011;11873;49.300;8.920;2023-07-29T12:38:47;2.57;;;1.00;;
23400;SDS011;11873;49.300;8.920;2023-07-29T12:43:47;1.03;;;1.03;;
23400;SDS011;11873;49.300;8.920;2023-07-29T12:48:48;1.23;;;1.13;;
23400;SDS011;11873;49.300;8.920;2023-07-29T12:53:48;1.40;;;0.83;;
23400;SDS011;11873;49.300;8.920;2023-07-29T12:58:49;0.60;;;0.60;;
23400;SDS011;11873;49.300;8.920;2023-07-29T13:03:49;1.60;;;1.50;;
23400;SDS011;11873;49.300;8.920;2023-07-29T13:08:49;1.00;;;1.00;;
23400;SDS011;11873;49.300;8.920;2023-07-29T13:13:50;1.02;;;1.02;;
23400;SDS011;11873;49.300;8.920;2023-07-29T13:18:50;1.40;;;1.30;;
23400;SDS011;11873;49.300;8.920;2023-07-29T13:23:51;1.53;;;1.27;;
23400;SDS011;11873;49.300;8.920;2023-07-29T13:28:51;1.80;;;1.30;;
23400;SDS011;11873;49.300;8.920;2023-07-29T13:33:51;0.80;;;0.80;;
23400;SDS011;11873;49.300;8.920;2023-07-29T13:38:51;1.67;;;1.03;;
23400;SDS011;11873;49.300;8.920;2023-07-29T13:43:52;1.37;;;1.27;;
23400;SDS011;11873;49.300;8.920;2023-07-29T13:48:52;2.07;;;1.87;;
23400;SDS011;11873;49.300;8.920;2023-07-29T13:53:52;1.27;;;1.20;;
23400;SDS011;11873;49.300;8.920;2023-07-29T13:58:52;1.60;;;1.50;;
23400;SDS011;11873;49.300;8.920;2023-07-29T14:03:52;0.80;;;0.80;;
23400;SDS011;11873;49.300;8.920;2023-07-29T14:08:52;1.27;;;1.03;;
23400;SDS011;11873;49.300;8.920;2023-07-29T14:13:53;2.00;;;1.57;;
23400;SDS011;11873;49.300;8.920;2023-07-29T14:18:53;0.93;;;0.93;;
23400;SDS011;11873;49.300;8.920;2023-07-29T14:23:53;1.43;;;1.33;;
23400;SDS011;11873;49.300;8.920;2023-07-29T14:28:53;1.30;;;1.20;;
23400;SDS011;11873;49.300;8.920;2023-07-29T14:33:53;0.80;;;0.80;;
23400;SDS011;11873;49.300;8.920;2023-07-29T14:38:54;1.70;;;1.40;;
23400;SDS011;11873;49.300;8.920;2023-07-29T14:43:54;1.70;;;1.60;;
23400;SDS011;11873;49.300;8.920;2023-07-29T14:48:54;1.70;;;1.60;;
23400;SDS011;11873;49.300;8.920;2023-07-29T14:53:54;1.23;;;1.23;;
23400;SDS011;11873;49.300;8.920;2023-07-29T14:58:57;1.23;;;1.13;;
23400;SDS011;11873;49.300;8.920;2023-07-29T15:03:57;1.13;;;1.07;;
23400;SDS011;11873;49.300;8.920;2023-07-29T15:08:57;1.10;;;1.10;;
23400;SDS011;11873;49.300;8.920;2023-07-29T15:13:58;1.50;;;1.40;;
23400;SDS011;11873;49.300;8.920;2023-07-29T15:18:58;2.60;;;1.50;;
23400;SDS011;11873;49.300;8.920;2023-07-29T15:23:58;1.33;;;1.10;;
23400;SDS011;11873;49.300;8.920;2023-07-29T15:33:59;1.47;;;1.33;;
23400;SDS011;11873;49.300;8.920;2023-07-29T15:38:59;2.13;;;1.53;;
23400;SDS011;11873;49.300;8.920;2023-07-29T15:44:00;1.30;;;1.20;;
23400;SDS011;11873;49.300;8.920;2023-07-29T15:49:00;1.40;;;1.30;;
23400;SDS011;11873;49.300;8.920;2023-07-29T15:54:00;1.07;;;1.07;;
23400;SDS011;11873;49.300;8.920;2023-07-29T15:59:00;1.10;;;1.10;;
23400;SDS011;11873;49.300;8.920;2023-07-29T16:04:00;1.60;;;1.50;;
23400;SDS011;11873;49.300;8.920;2023-07-29T16:09:01;1.70;;;1.60;;
23400;SDS011;11873;49.300;8.920;2023-07-29T16:14:01;1.20;;;1.10;;
23400;SDS011;11873;49.300;8.920;2023-07-29T16:19:01;1.20;;;1.20;;
23400;SDS011;11873;49.300;8.920;2023-07-29T16:24:01;1.57;;;1.47;;
23400;SDS011;11873;49.300;8.920;2023-07-29T16:29:02;4.07;;;1.07;;
23400;SDS011;11873;49.300;8.920;2023-07-29T16:34:02;2.13;;;1.70;;
23400;SDS011;11873;49.300;8.920;2023-07-29T16:39:02;2.03;;;1.47;;
23400;SDS011;11873;49.300;8.920;2023-07-29T16:44:02;1.40;;;1.30;;
23400;SDS011;11873;49.300;8.920;2023-07-29T16:49:02;1.50;;;1.40;;
23400;SDS011;11873;49.300;8.920;2023-07-29T16:54:03;1.63;;;1.53;;
23400;SDS011;11873;49.300;8.920;2023-07-29T16:59:03;2.10;;;1.23;;
23400;SDS011;11873;49.300;8.920;2023-07-29T17:04:03;3.37;;;1.50;;
23400;SDS011;11873;49.300;8.920;2023-07-29T17:09:03;1.43;;;1.33;;
23400;SDS011;11873;49.300;8.920;2023-07-29T17:14:04;1.70;;;1.60;;
23400;SDS011;11873;49.300;8.920;2023-07-29T17:19:04;1.63;;;1.53;;
23400;SDS011;11873;49.300;8.920;2023-07-29T17:24:04;2.77;;;2.03;;
23400;SDS011;11873;49.300;8.920;2023-07-29T17:29:04;2.00;;;1.80;;
23400;SDS011;11873;49.300;8.920;2023-07-29T17:34:04;0.30;;;0.30;;
23400;SDS011;11873;49.300;8.920;2023-07-29T17:39:05;0.30;;;0.30;;
23400;SDS011;11873;49.300;8.920;2023-07-29T17:44:05;0.30;;;0.30;;
23400;SDS011;11873;49.300;8.920;2023-07-29T17:49:05;0.30;;;0.30;;
23400;SDS011;11873;49.300;8.920;2023-07-29T17:54:05;0.30;;;0.30;;
23400;SDS011;11873;49.300;8.920;2023-07-29T17:59:05;0.30;;;0.30;;
23400;SDS011;11873;49.300;8.920;2023-07-29T18:04:06;0.30;;;0.30;;
23400;SDS011;11873;49.300;8.920;2023-07-29T18:09:06;0.30;;;0.30;;
23400;SDS011;11873;49.300;8.920;2023-07-29T18:14:06;0.30;;;0.30;;
23400;SDS011;11873;49.300;8.920;2023-07-29T18:19:06;0.30;;;0.30;;
23400;SDS011;11873;49.300;8.920;2023-07-29T18:24:07;0.30;;;0.30;;
23400;SDS011;11873;49.300;8.920;2023-07-29T18:29:07;0.30;;;0.30;;
23400;SDS011;11873;49.300;8.920;2023-07-29T18:34:07;0.30;;;0.30;;
23400;SDS011;11873;49.300;8.920;2023-07-29T18:39:07;0.30;;;0.30;;
23400;SDS011;11873;49.300;8.920;2023-07-29T18:44:08;0.30;;;0.30;;
23400;SDS011;11873;49.300;8.920;2023-07-29T18:49:08;0.30;;;0.30;;
23400;SDS011;11873;49.300;8.920;2023-07-29T18:54:08;0.30;;;0.30;;
23400;SDS011;11873;49.300;8.920;2023-07-29T18:59:08;0.30;;;0.30;;
23400;SDS011;11873;49.300;8.920;2023-07-29T19:04:08;0.30;;;0.30;;
23400;SDS011;11873;49.300;8.920;2023-07-29T19:09:08;0.30;;;0.30;;
23400;SDS011;11873;49.300;8.920;2023-07-29T19:14:09;0.30;;;0.30;;
23400;SDS011;11873;49.300;8.920;2023-07-29T19:19:09;0.30;;;0.30;;
23400;SDS011;11873;49.300;8.920;2023-07-29T19:24:09;0.30;;;0.30;;
23400;SDS011;11873;49.300;8.920;2023-07-29T19:29:09;0.30;;;0.30;;
23400;SDS011;11873;49.300;8.920;2023-07-29T19:34:10;0.30;;;0.30;;
23400;SDS011;11873;49.300;8.920;2023-07-29T19:39:10;0.30;;;0.30;;
23400;SDS011;11873;49.300;8.920;2023-07-29T19:44:10;0.30;;;0.30;;
23400;SDS011;11873;49.300;8.920;2023-07-29T19:49:10;0.30;;;0.30;;
23400;SDS011;11873;49.300;8.920;2023-07-29T19:54:10;0.30;;;0.30;;
23400;SDS011;11873;49.300;8.920;2023-07-29T19:59:11;0.30;;;0.30;;
23400;SDS011;11873;49.300;8.920;2023-07-29T20:04:11;0.30;;;0.30;;
23400;SDS011;11873;49.300;8.920;2023-07-29T20:09:11;0.30;;;0.30;;
23400;SDS011;11873;49.300;8.920;2023-07-29T20:14:11;0.30;;;0.30;;
23400;SDS011;11873;49.300;8.920;2023-07-29T20:19:11;0.30;;;0.30;;
23400;SDS011;11873;49.300;8.920;2023-07-29T20:24:11;0.30;;;0.30;;
23400;SDS011;11873;49.300;8.920;2023-07-29T20:29:12;0.30;;;0.30;;
23400;SDS011;11873;49.300;8.920;2023-07-29T20:34:12;0.30;;;0.30;;
23400;SDS011;11873;49.300;8.920;2023-07-29T20:39:12;0.30;;;0.30;;
23400;SDS011;11873;49.300;8.920;2023-07-29T20:44:12;0.30;;;0.30;;
23400;SDS011;11873;49.300;8.920;2023-07-29T20:49:12;0.30;;;0.30;;
23400;SDS011;11873;49.300;8.920;2023-07-29T20:54:13;0.30;;;0.30;;
23400;SDS011;11873;49.300;8.920;2023-07-29T20:59:13;0.30;;;0.30;;
23400;SDS011;11873;49.300;8.920;2023-07-29T21:04:13;0.30;;;0.30;;
23400;SDS011;11873;49.300;8.920;2023-07-29T21:09:13;0.30;;;0.30;;
23400;SDS011;11873;49.300;8.920;2023-07-29T21:14:14;0.30;;;0.30;;
23400;SDS011;11873;49.300;8.920;2023-07-29T21:19:14;0.30;;;0.30;;
23400;SDS011;11873;49.300;8.920;2023-07-29T21:24:14;0.30;;;0.30;;
23400;SDS011;11873;49.300;8.920;2023-07-29T21:29:14;0.30;;;0.30;;
23400;SDS011;11873;49.300;8.920;2023-07-29T21:34:14;0.30;;;0.30;;
23400;SDS011;11873;49.300;8.920;2023-07-29T21:39:14;0.30;;;0.30;;
23400;SDS011;11873;49.300;8.920;2023-07-29T21:44:15;0.30;;;0.30;;
23400;SDS011;11873;49.300;8.920;2023-07-29T21:49:15;0.30;;;0.30;;
23400;SDS011;11873;49.300;8.920;2023-07-29T21:54:15;0.30;;;0.30;;
23400;SDS011;11873;49.300;8.920;2023-07-29T21:59:15;0.30;;;0.30;;
23400;SDS011;11873;49.300;8.920;2023-07-29T22:04:15;0.30;;;0.30;;
23400;SDS011;11873;49.300;8.920;2023-07-29T22:09:16;0.30;;;0.30;;
23400;SDS011;11873;49.300;8.920;2023-07-29T22:14:16;0.30;;;0.30;;
23400;SDS011;11873;49.300;8.920;2023-07-29T22:19:16;0.33;;;0.33;;
23400;SDS011;11873;49.300;8.920;2023-07-29T22:24:19;0.30;;;0.30;;
23400;SDS011;11873;49.300;8.920;2023-07-29T22:29:19;0.30;;;0.30;;
23400;SDS011;11873;49.300;8.920;2023-07-29T22:34:19;0.30;;;0.30;;
23400;SDS011;11873;49.300;8.920;2023-07-29T22:39:20;2.30;;;1.80;;
23400;SDS011;11873;49.300;8.920;2023-07-29T22:44:20;2.00;;;1.80;;
23400;SDS011;11873;49.300;8.920;2023-07-29T22:49:20;0.30;;;0.30;;
23400;SDS011;11873;49.300;8.920;2023-07-29T22:54:20;0.30;;;0.30;;
23400;SDS011;11873;49.300;8.920;2023-07-29T22:59:20;0.30;;;0.30;;
23400;SDS011;11873;49.300;8.920;2023-07-29T23:04:21;0.30;;;0.30;;
23400;SDS011;11873;49.300;8.920;2023-07-29T23:09:21;0.30;;;0.30;;
23400;SDS011;11873;49.300;8.920;2023-07-29T23:14:21;0.30;;;0.30;;
23400;SDS011;11873;49.300;8.920;2023-07-29T23:19:21;0.30;;;0.30;;
23400;SDS011;11873;49.300;8.920;2023-07-29T23:24:21;0.30;;;0.30;;
23400;SDS011;11873;49.300;8.920;2023-07-29T23:29:22;0.30;;;0.30;;
23400;SDS011;11873;49.300;8.920;2023-07-29T23:34:22;0.30;;;0.30;;
23400;SDS011;11873;49.300;8.920;2023-07-29T23:39:22;0.30;;;0.30;;
23400;SDS011;11873;49.300;8.920;2023-07-29T23:44:22;0.30;;;0.30;;
23400;SDS011;11873;49.300;8.920;2023-07-29T23:49:23;0.30;;;0.30;;
23400;SDS011;11873;49.300;8.920;2023-07-29T23:54:23;0.30;;;0.30;;
23400;SDS011;11873;49.300;8.920;2023-07-29T23:59:23;0.30;;;0.30;;
